Time;durP1;ratioP1;P1;durP2;ratioP2;P2;SDS_P1;SDS_P2;PMS_P1;PMS_P2;Temp;Humidity;BMP_temperature;BMP_pressure;BME280_temperature;BME280_humidity;BME280_pressure;Samples;Min_cycle;Max_cycle;Signal;HPM_P1;HPM_P2
2021/01/18 00:01:22;;;;;;;25.00;14.90;;;2.00;1.00;;;;;;5077579;28;20224;-60
2021/01/18 00:03:48;;;;;;;25.67;15.25;;;2.00;1.00;;;;;;5076458;28;20506;-63
2021/01/18 00:06:18;;;;;;;26.50;14.43;;;1.90;1.00;;;;;;5075724;28;20204;-60
2021/01/18 00:08:44;;;;;;;29.83;15.73;;;2.10;1.00;;;;;;5074841;28;20455;-60
2021/01/18 00:11:16;;;;;;;31.48;17.70;;;2.20;1.00;;;;;;5074796;28;20196;-62
2021/01/18 00:13:44;;;;;;;29.63;16.67;;;2.20;1.00;;;;;;5075001;28;20185;-61
2021/01/18 00:16:14;;;;;;;28.73;15.88;;;2.30;1.00;;;;;;5074832;28;20503;-59
2021/01/18 00:18:40;;;;;;;30.63;15.15;;;2.00;1.00;;;;;;5074370;28;20185;-64
2021/01/18 00:21:06;;;;;;;28.93;17.17;;;2.20;1.00;;;;;;5074112;28;20187;-64
2021/01/18 00:23:32;;;;;;;27.43;16.60;;;2.20;1.00;;;;;;5074141;28;20180;-64
2021/01/18 00:25:57;;;;;;;29.23;15.57;;;2.20;1.00;;;;;;5074541;28;20638;-63
2021/01/18 00:28:23;;;;;;;30.23;17.90;;;2.30;52.70;;;;;;5074239;28;20208;-63
2021/01/18 00:30:48;;;;;;;26.83;15.73;;;2.20;91.60;;;;;;5074331;28;20181;-59
2021/01/18 00:33:14;;;;;;;27.57;16.93;;;2.10;70.60;;;;;;5074008;28;20169;-62
2021/01/18 00:35:40;;;;;;;36.40;18.77;;;2.00;99.90;;;;;;5074408;28;20664;-64
2021/01/18 00:38:05;;;;;;;25.83;15.70;;;2.00;99.90;;;;;;5074088;28;20575;-64
2021/01/18 00:40:31;;;;;;;25.20;15.77;;;1.80;1.00;;;;;;5074304;28;20184;-63
2021/01/18 00:42:56;;;;;;;31.90;16.97;;;1.90;1.00;;;;;;5074162;28;20188;-63
2021/01/18 00:45:23;;;;;;;30.50;17.13;;;2.10;1.00;;;;;;5073925;28;20173;-62
2021/01/18 00:47:54;;;;;;;31.00;18.90;;;2.20;1.00;;;;;;5074199;28;20598;-62
2021/01/18 00:50:22;;;;;;;27.80;15.98;;;2.30;1.00;;;;;;5073021;28;20258;-64
2021/01/18 00:52:49;;;;;;;32.88;18.38;;;2.10;1.00;;;;;;5073865;28;20256;-60
2021/01/18 00:55:18;;;;;;;31.75;17.20;;;2.00;1.00;;;;;;5073554;28;20183;-60
2021/01/18 00:57:48;;;;;;;28.08;16.35;;;2.20;1.00;;;;;;5074078;28;20561;-60
2021/01/18 01:00:18;;;;;;;35.22;18.48;;;2.30;1.00;;;;;;5073801;28;20190;-62
2021/01/18 01:02:45;;;;;;;33.05;18.42;;;2.20;1.00;;;;;;5073853;28;20181;-61
2021/01/18 01:05:12;;;;;;;33.47;16.73;;;2.10;1.00;;;;;;5073350;28;20813;-60
2021/01/18 01:07:43;;;;;;;37.28;18.85;;;1.90;1.00;;;;;;5073720;28;20621;-61
2021/01/18 01:10:11;;;;;;;31.25;17.88;;;1.80;10.00;;;;;;5073481;28;20295;-64
2021/01/18 01:12:36;;;;;;;33.22;17.77;;;1.80;99.90;;;;;;5073796;28;20181;-63
2021/01/18 01:15:04;;;;;;;32.47;16.50;;;1.90;99.90;;;;;;5072024;28;20187;-61
2021/01/18 01:17:30;;;;;;;32.15;20.08;;;1.90;99.90;;;;;;5072415;28;20246;-60
2021/01/18 01:19:55;;;;;;;35.97;18.23;;;1.80;99.90;;;;;;5072693;28;20606;-60
2021/01/18 01:22:21;;;;;;;36.17;19.13;;;1.80;99.90;;;;;;5073572;28;20173;-63
2021/01/18 01:24:46;;;;;;;31.57;17.43;;;2.00;99.90;;;;;;5073461;28;20627;-64
2021/01/18 01:27:12;;;;;;;115.87;44.97;;;2.10;99.90;;;;;;5072473;28;20576;-63
2021/01/18 01:29:37;;;;;;;35.20;20.47;;;1.90;99.90;;;;;;5073294;28;20215;-62
2021/01/18 01:32:03;;;;;;;36.20;18.83;;;2.00;99.90;;;;;;5072493;28;20225;-64
2021/01/18 01:34:29;;;;;;;36.83;19.30;;;2.00;99.90;;;;;;5073335;28;20172;-62
2021/01/18 01:36:54;;;;;;;33.57;17.57;;;2.00;99.90;;;;;;5073454;28;20628;-62
2021/01/18 01:39:20;;;;;;;41.50;20.80;;;2.10;99.90;;;;;;5073297;28;20437;-62
2021/01/18 01:41:46;;;;;;;36.30;19.30;;;2.20;99.90;;;;;;5073386;28;20188;-62
2021/01/18 01:44:11;;;;;;;43.10;19.27;;;2.20;99.90;;;;;;5073151;28;20581;-64
2021/01/18 01:46:38;;;;;;;39.17;21.03;;;2.00;99.90;;;;;;5073333;28;20621;-63
2021/01/18 01:49:03;;;;;;;34.08;18.58;;;1.90;99.90;;;;;;5073283;28;20287;-62
2021/01/18 01:51:29;;;;;;;39.57;19.43;;;1.80;99.90;;;;;;5073721;28;20211;-62
2021/01/18 01:53:57;;;;;;;37.30;19.47;;;1.80;99.90;;;;;;5073533;28;20173;-62
2021/01/18 01:56:23;;;;;;;41.75;19.95;;;1.70;1.00;;;;;;5073746;28;20502;-62
2021/01/18 01:58:53;;;;;;;40.00;20.10;;;1.90;1.00;;;;;;5073499;28;20564;-62
2021/01/18 02:01:20;;;;;;;36.08;20.75;;;2.20;1.00;;;;;;5073292;28;20194;-60
2021/01/18 02:03:48;;;;;;;37.72;19.05;;;2.50;1.00;;;;;;5072929;28;20184;-60
2021/01/18 02:06:14;;;;;;;40.03;19.35;;;2.50;99.90;;;;;;5073220;28;20185;-60
2021/01/18 02:08:39;;;;;;;36.07;19.00;;;2.70;99.90;;;;;;5073255;28;20505;-63
2021/01/18 02:11:06;;;;;;;32.00;18.40;;;2.80;99.90;;;;;;5072293;28;20181;-63
2021/01/18 02:13:57;;;;;;;45.05;19.58;;;2.80;99.90;;;;;;5072899;28;20180;-65
2021/01/18 02:16:47;;;;;;;42.38;19.55;;;2.90;99.90;;;;;;5073078;28;20641;-62
2021/01/18 02:19:45;;;;;;;32.85;18.42;;;3.00;18.10;;;;;;5073089;28;20181;-62
2021/01/18 02:22:44;;;;;;;31.90;17.52;;;3.10;1.00;;;;;;5072973;28;20192;-62
2021/01/18 02:25:37;;;;;;;35.75;18.25;;;3.00;1.00;;;;;;5072469;28;20194;-62
2021/01/18 02:28:43;;;;;;;31.50;17.95;;;3.20;1.00;;;;;;5072792;28;20275;-62
2021/01/18 02:31:56;;;;;;;35.20;19.38;;;3.20;1.00;;;;;;5069840;28;20189;-62
2021/01/18 02:34:51;;;;;;;28.95;16.92;;;3.00;1.00;;;;;;5067417;28;20180;-60
2021/01/18 02:37:32;;;;;;;34.85;17.02;;;3.10;1.00;;;;;;5072012;28;20176;-60
2021/01/18 02:40:09;;;;;;;34.47;17.77;;;3.30;1.00;;;;;;5072539;28;20198;-62
2021/01/18 02:43:01;;;;;;;38.60;18.15;;;3.30;1.00;;;;;;5072814;28;20168;-65
2021/01/18 02:45:27;;;;;;;32.95;17.20;;;3.30;1.00;;;;;;5076034;28;20176;-65
2021/01/18 02:47:54;;;;;;;32.07;18.03;;;3.40;1.00;;;;;;5076370;28;20183;-65
2021/01/18 02:50:20;;;;;;;33.95;18.88;;;3.60;1.00;;;;;;5076253;28;20466;-65
2021/01/18 02:52:46;;;;;;;38.42;19.65;;;3.60;99.90;;;;;;5076375;28;20181;-65
2021/01/18 02:55:16;;;;;;;33.33;17.47;;;3.60;99.90;;;;;;5075979;28;20183;-65
2021/01/18 02:57:44;;;;;;;32.42;18.10;;;3.60;99.90;;;;;;5076262;28;20607;-60
2021/01/18 03:00:13;;;;;;;37.35;18.00;;;3.70;99.90;;;;;;5076036;28;20261;-60
2021/01/18 03:02:47;;;;;;;32.20;18.15;;;3.80;99.90;;;;;;5076153;28;20606;-60
2021/01/18 03:05:20;;;;;;;31.98;18.75;;;3.80;99.90;;;;;;5076058;28;20181;-60
2021/01/18 03:08:11;;;;;;;31.55;17.10;;;3.90;99.90;;;;;;5075925;28;20507;-60
2021/01/18 03:10:49;;;;;;;33.67;18.15;;;3.90;99.90;;;;;;5075929;28;20610;-60
2021/01/18 03:13:26;;;;;;;34.00;18.40;;;3.90;99.90;;;;;;5075984;28;20184;-62
2021/01/18 03:15:57;;;;;;;34.97;18.42;;;4.10;6.30;;;;;;5075767;28;20697;-60
2021/01/18 03:18:25;;;;;;;32.03;16.95;;;4.00;1.00;;;;;;5074651;28;20267;-62
2021/01/18 03:20:50;;;;;;;40.33;18.75;;;4.10;1.00;;;;;;5075722;28;20176;-62
2021/01/18 03:23:16;;;;;;;39.67;18.53;;;4.10;1.00;;;;;;5075259;28;20183;-65
2021/01/18 03:25:46;;;;;;;39.87;19.57;;;4.00;99.90;;;;;;5075631;28;20417;-65
2021/01/18 03:28:11;;;;;;;33.33;16.88;;;3.90;1.00;;;;;;5075565;28;20411;-63
2021/01/18 03:30:37;;;;;;;38.17;18.20;;;4.00;1.00;;;;;;5075830;28;20196;-65
2021/01/18 03:33:03;;;;;;;25.23;15.13;;;3.90;1.00;;;;;;5075519;28;20187;-65
2021/01/18 03:35:28;;;;;;;32.63;16.80;;;3.70;1.00;;;;;;5075428;28;20176;-65
2021/01/18 03:37:56;;;;;;;27.70;16.10;;;3.70;78.20;;;;;;5075296;28;20512;-65
2021/01/18 03:40:23;;;;;;;27.95;13.13;;;3.70;1.00;;;;;;5075617;28;20430;-65
2021/01/18 03:42:55;;;;;;;25.92;12.63;;;3.50;1.00;;;;;;5075252;28;20263;-65
2021/01/18 03:45:21;;;;;;;27.42;12.40;;;3.30;26.40;;;;;;5074954;28;20188;-65
2021/01/18 03:47:49;;;;;;;23.47;13.63;;;3.10;99.90;;;;;;5074477;28;20184;-65
2021/01/18 03:50:15;;;;;;;27.70;13.20;;;3.10;99.90;;;;;;5074963;28;20532;-65
2021/01/18 03:52:41;;;;;;;24.10;11.90;;;3.10;99.90;;;;;;5073829;28;20229;-62
2021/01/18 03:55:08;;;;;;;26.70;13.20;;;3.10;1.00;;;;;;5073833;28;20184;-62
2021/01/18 03:57:34;;;;;;;21.55;10.88;;;3.10;1.00;;;;;;5075096;28;20251;-62
2021/01/18 03:59:59;;;;;;;17.80;9.67;;;3.30;1.00;;;;;;5074906;28;20214;-61
2021/01/18 04:02:25;;;;;;;18.37;11.43;;;3.30;1.00;;;;;;5075117;28;20216;-62
2021/01/18 04:04:50;;;;;;;25.10;11.87;;;3.10;1.00;;;;;;5074637;28;20767;-62
2021/01/18 04:07:16;;;;;;;18.90;11.90;;;3.40;1.00;;;;;;5074875;28;20621;-62
2021/01/18 04:09:41;;;;;;;19.67;11.27;;;3.40;1.00;;;;;;5074814;28;20238;-60
2021/01/18 04:12:07;;;;;;;19.60;10.70;;;3.30;1.00;;;;;;5073714;28;20198;-60
2021/01/18 04:14:33;;;;;;;19.67;10.50;;;3.00;1.00;;;;;;5074471;28;20211;-62
2021/01/18 04:16:58;;;;;;;17.57;9.13;;;2.80;1.00;;;;;;5074541;28;20625;-62
2021/01/18 04:19:24;;;;;;;19.60;8.77;;;2.80;1.00;;;;;;5074413;28;20184;-62
2021/01/18 04:21:49;;;;;;;23.77;9.90;;;2.80;1.00;;;;;;5074490;28;20192;-62
2021/01/18 04:24:15;;;;;;;21.93;11.10;;;2.50;1.00;;;;;;5074375;28;20554;-62
2021/01/18 04:26:40;;;;;;;18.40;9.93;;;2.60;1.00;;;;;;5074469;28;20335;-62
2021/01/18 04:29:06;;;;;;;16.83;9.23;;;2.70;1.00;;;;;;5074408;28;20204;-62
2021/01/18 04:31:32;;;;;;;16.53;9.03;;;2.70;1.00;;;;;;5074387;28;20169;-62
2021/01/18 04:33:57;;;;;;;15.10;9.17;;;2.80;1.00;;;;;;5074265;28;20180;-62
2021/01/18 04:36:23;;;;;;;16.00;8.43;;;2.80;1.00;;;;;;5074309;28;20191;-62
2021/01/18 04:38:50;;;;;;;13.87;7.60;;;2.90;1.00;;;;;;5074323;28;20627;-62
2021/01/18 04:41:15;;;;;;;21.55;9.27;;;2.90;1.00;;;;;;5074235;28;20190;-62
2021/01/18 04:43:43;;;;;;;23.20;10.60;;;2.80;1.00;;;;;;5074039;28;20173;-62
2021/01/18 04:46:12;;;;;;;15.52;8.43;;;2.90;1.00;;;;;;5074030;28;20419;-62
2021/01/18 04:48:38;;;;;;;14.27;8.63;;;2.80;1.00;;;;;;5074022;28;20315;-62
2021/01/18 04:51:06;;;;;;;19.73;9.47;;;2.80;1.00;;;;;;5073828;28;20259;-62
2021/01/18 04:53:33;;;;;;;19.23;8.85;;;3.00;1.00;;;;;;5072475;28;20919;-62
2021/01/18 04:56:17;;;;;;;18.48;10.60;;;3.00;1.00;;;;;;5073747;28;20187;-62
2021/01/18 04:58:48;;;;;;;19.13;8.93;;;2.90;1.00;;;;;;5073834;28;20173;-62
2021/01/18 05:01:16;;;;;;;17.00;8.88;;;3.10;1.00;;;;;;5073941;28;20534;-63
2021/01/18 05:03:44;;;;;;;22.27;9.95;;;3.30;1.00;;;;;;5073680;28;20187;-62
2021/01/18 05:06:13;;;;;;;16.38;8.38;;;3.40;1.00;;;;;;5072610;28;20181;-62
2021/01/18 05:08:57;;;;;;;20.17;8.75;;;3.40;1.00;;;;;;5073754;28;20232;-63
2021/01/18 05:11:22;;;;;;;16.52;8.27;;;3.30;1.00;;;;;;5073772;28;20177;-63
2021/01/18 05:13:48;;;;;;;20.03;9.17;;;3.10;1.00;;;;;;5073444;28;20181;-63
2021/01/18 05:16:14;;;;;;;13.03;7.83;;;3.10;1.00;;;;;;5073752;28;20192;-63
2021/01/18 05:18:41;;;;;;;19.53;9.47;;;3.00;1.00;;;;;;5073637;28;20208;-63
2021/01/18 05:21:09;;;;;;;18.38;8.77;;;3.30;1.00;;;;;;5073652;28;20176;-58
2021/01/18 05:23:41;;;;;;;17.08;8.48;;;3.10;1.00;;;;;;5073329;28;20214;-60
2021/01/18 05:26:22;;;;;;;14.40;7.55;;;3.20;1.00;;;;;;5073581;28;20238;-64
2021/01/18 05:28:48;;;;;;;15.57;7.95;;;3.10;1.00;;;;;;5073429;28;20207;-65
2021/01/18 05:31:26;;;;;;;11.30;7.93;;;3.30;1.00;;;;;;5073599;28;20272;-62
2021/01/18 05:33:55;;;;;;;11.00;5.88;;;3.50;1.00;;;;;;5073198;28;20177;-61
2021/01/18 05:36:41;;;;;;;15.75;7.72;;;3.40;1.00;;;;;;5073397;28;20259;-61
2021/01/18 05:39:21;;;;;;;12.18;7.05;;;3.60;1.00;;;;;;5073167;28;20251;-60
2021/01/18 05:41:54;;;;;;;11.77;5.57;;;3.60;1.00;;;;;;5073057;28;20188;-60
2021/01/18 05:44:29;;;;;;;13.48;7.53;;;3.50;1.00;;;;;;5073039;28;20190;-60
2021/01/18 05:47:01;;;;;;;10.82;5.95;;;3.40;1.00;;;;;;5071929;28;20183;-61
2021/01/18 05:49:41;;;;;;;14.00;6.75;;;3.30;1.00;;;;;;5073310;28;20240;-61
2021/01/18 05:52:31;;;;;;;9.57;5.25;;;3.20;1.00;;;;;;5072257;28;20554;-62
2021/01/18 05:55:20;;;;;;;11.40;6.30;;;3.40;1.00;;;;;;5073317;28;20463;-61
2021/01/18 05:57:47;;;;;;;11.15;5.82;;;3.40;1.00;;;;;;5073236;28;20168;-61
2021/01/18 06:00:22;;;;;;;16.80;7.13;;;3.40;1.00;;;;;;5073299;28;20513;-66
2021/01/18 06:02:49;;;;;;;14.38;7.03;;;3.70;1.00;;;;;;5072344;28;20179;-62
2021/01/18 06:05:15;;;;;;;10.25;5.70;;;3.70;1.00;;;;;;5072934;28;20632;-64
2021/01/18 06:07:41;;;;;;;13.35;5.80;;;3.80;1.00;;;;;;5071998;28;20470;-60
2021/01/18 06:10:07;;;;;;;11.77;6.23;;;3.90;1.00;;;;;;5072947;28;20238;-60
2021/01/18 06:12:34;;;;;;;10.85;6.78;;;3.90;1.00;;;;;;5072102;28;20185;-60
2021/01/18 06:15:14;;;;;;;10.98;6.22;;;3.70;1.00;;;;;;5072716;28;20272;-59
2021/01/18 06:17:51;;;;;;;16.05;7.18;;;3.60;1.00;;;;;;5073089;28;20177;-61
2021/01/18 06:20:28;;;;;;;13.13;7.53;;;3.50;1.00;;;;;;5077185;28;20176;-60
2021/01/18 06:23:02;;;;;;;16.85;9.35;;;3.40;1.00;;;;;;5077101;28;20180;-60
2021/01/18 06:25:34;;;;;;;12.23;6.53;;;3.30;1.00;;;;;;5075979;28;20199;-60
2021/01/18 06:28:00;;;;;;;17.15;9.57;;;3.50;1.00;;;;;;5076166;28;20176;-65
2021/01/18 06:30:31;;;;;;;18.17;8.00;;;3.60;3.40;;;;;;5076205;28;20231;-64
2021/01/18 06:33:10;;;;;;;16.65;7.40;;;3.60;3.90;;;;;;5076840;28;20614;-63
2021/01/18 06:35:37;;;;;;;15.20;7.07;;;3.50;7.70;;;;;;5077097;28;20204;-63
2021/01/18 06:38:05;;;;;;;13.07;7.07;;;3.40;10.30;;;;;;5076591;28;20181;-66
2021/01/18 06:40:38;;;;;;;21.88;8.55;;;3.30;19.70;;;;;;5075371;28;20242;-65
2021/01/18 06:43:06;;;;;;;16.15;7.95;;;3.40;34.60;;;;;;5076350;28;20691;-63
2021/01/18 06:45:35;;;;;;;17.00;6.90;;;3.40;49.50;;;;;;5076381;28;20180;-63
2021/01/18 06:48:02;;;;;;;16.65;6.53;;;3.50;57.40;;;;;;5076419;28;20284;-64
2021/01/18 06:50:31;;;;;;;13.57;7.30;;;3.30;59.90;;;;;;5076055;28;20268;-63
2021/01/18 06:53:06;;;;;;;16.58;7.25;;;3.30;74.70;;;;;;5076246;28;20185;-65
2021/01/18 06:55:36;;;;;;;15.18;7.60;;;3.40;91.60;;;;;;5076341;28;20501;-60
2021/01/18 06:58:21;;;;;;;13.55;7.50;;;3.40;98.10;;;;;;5076152;28;20234;-60
2021/01/18 07:00:54;;;;;;;14.32;7.55;;;3.50;99.90;;;;;;5076165;28;20192;-60
2021/01/18 07:03:42;;;;;;;14.10;6.88;;;3.50;99.60;;;;;;5075816;28;20188;-62
2021/01/18 07:06:33;;;;;;;9.38;5.85;;;3.40;99.20;;;;;;5076301;28;20234;-61
2021/01/18 07:09:10;;;;;;;13.00;7.07;;;3.50;99.90;;;;;;5076186;28;20532;-61
2021/01/18 07:11:37;;;;;;;12.93;8.20;;;3.30;99.90;;;;;;5076055;28;20653;-63
2021/01/18 07:14:05;;;;;;;12.85;7.40;;;3.50;99.90;;;;;;5074668;28;20181;-63
2021/01/18 07:16:32;;;;;;;12.63;6.60;;;3.50;99.90;;;;;;5076512;28;20180;-65
2021/01/18 07:19:00;;;;;;;14.82;6.75;;;3.50;99.90;;;;;;5075814;28;20535;-65
2021/01/18 07:21:30;;;;;;;10.82;6.15;;;3.40;99.90;;;;;;5075961;28;20177;-65
2021/01/18 07:23:58;;;;;;;14.63;6.35;;;3.50;99.90;;;;;;5075790;28;20199;-63
2021/01/18 07:26:56;;;;;;;12.18;6.22;;;3.50;99.90;;;;;;5075879;28;20799;-63
2021/01/18 07:29:26;;;;;;;10.90;7.03;;;3.50;99.90;;;;;;5075022;28;20204;-63
2021/01/18 07:31:57;;;;;;;15.32;8.25;;;3.50;99.90;;;;;;5074347;28;20199;-63
2021/01/18 07:34:25;;;;;;;12.18;7.22;;;3.50;99.90;;;;;;5075242;28;20184;-63
2021/01/18 07:36:52;;;;;;;11.35;6.20;;;3.60;99.90;;;;;;5075582;28;20260;-63
2021/01/18 07:39:33;;;;;;;17.38;8.35;;;3.60;99.90;;;;;;5075662;28;20176;-63
2021/01/18 07:42:00;;;;;;;13.18;5.82;;;3.60;99.90;;;;;;5075857;28;20177;-65
2021/01/18 07:44:38;;;;;;;12.15;6.55;;;3.40;99.90;;;;;;5075038;28;20640;-65
2021/01/18 07:47:06;;;;;;;12.82;6.47;;;3.50;99.90;;;;;;5075244;28;20184;-65
2021/01/18 07:49:36;;;;;;;14.00;5.72;;;3.40;99.90;;;;;;5075098;28;20200;-65
2021/01/18 07:52:25;;;;;;;10.57;7.07;;;3.60;99.90;;;;;;5075129;28;20177;-62
2021/01/18 07:54:51;;;;;;;16.10;6.90;;;3.60;99.90;;;;;;5074724;28;20211;-62
2021/01/18 07:57:38;;;;;;;15.73;9.23;;;3.70;99.90;;;;;;5075014;28;20177;-62
2021/01/18 08:00:19;;;;;;;17.83;7.70;;;3.60;99.90;;;;;;5074794;28;20199;-62
2021/01/18 08:02:45;;;;;;;9.75;6.68;;;3.60;99.90;;;;;;5075081;28;20173;-65
2021/01/18 08:05:41;;;;;;;16.80;6.60;;;3.50;99.90;;;;;;5075447;28;20588;-64
2021/01/18 08:08:07;;;;;;;9.43;6.28;;;3.60;99.90;;;;;;5073830;28;20637;-60
2021/01/18 08:10:55;;;;;;;10.48;5.28;;;3.60;99.90;;;;;;5075642;28;20222;-60
2021/01/18 08:13:47;;;;;;;16.23;7.22;;;3.70;99.90;;;;;;5074020;28;20184;-60
2021/01/18 08:16:49;;;;;;;16.50;7.57;;;3.80;99.90;;;;;;5059388;28;20238;-60
2021/01/18 08:19:26;;;;;;;12.82;6.60;;;3.90;99.90;;;;;;5073595;28;20215;-58
2021/01/18 08:22:04;;;;;;;16.90;7.03;;;3.90;99.90;;;;;;5073035;28;20176;-60
2021/01/18 08:24:30;;;;;;;16.98;7.25;;;4.10;99.90;;;;;;5072678;28;20191;-60
2021/01/18 08:27:03;;;;;;;17.03;7.97;;;4.20;99.90;;;;;;5074423;28;20181;-60
2021/01/18 08:29:35;;;;;;;17.75;8.25;;;4.10;99.90;;;;;;5054518;28;20209;-65
2021/01/18 08:32:23;;;;;;;19.38;10.02;;;4.30;99.90;;;;;;5068711;28;20192;-60
2021/01/18 08:34:54;;;;;;;18.65;7.72;;;4.40;99.90;;;;;;5074220;28;20180;-60
2021/01/18 08:37:21;;;;;;;24.23;9.85;;;4.30;99.90;;;;;;5074127;28;20628;-59
2021/01/18 08:40:07;;;;;;;23.98;9.85;;;4.40;99.90;;;;;;5072032;28;20641;-59
2021/01/18 08:42:38;;;;;;;21.05;9.30;;;4.60;99.90;;;;;;5056005;28;20200;-60
2021/01/18 08:45:09;;;;;;;19.65;7.45;;;4.60;99.90;;;;;;5070346;28;20208;-61
2021/01/18 08:47:38;;;;;;;21.08;9.00;;;4.80;96.70;;;;;;5072776;28;20275;-62
2021/01/18 08:50:26;;;;;;;20.90;8.77;;;4.80;64.80;;;;;;5073506;28;20273;-59
2021/01/18 08:52:55;;;;;;;17.00;8.15;;;4.80;3.50;;;;;;5073833;28;20268;-60
2021/01/18 08:55:30;;;;;;;22.25;9.65;;;4.70;1.00;;;;;;5073383;28;20173;-60
2021/01/18 08:58:03;;;;;;;30.45;11.20;;;4.80;1.00;;;;;;5073356;28;20167;-58
2021/01/18 09:00:42;;;;;;;23.08;10.95;;;4.80;1.00;;;;;;5073688;28;20224;-56
2021/01/18 09:03:15;;;;;;;22.98;10.18;;;4.80;1.00;;;;;;5073594;28;20275;-57
2021/01/18 09:05:41;;;;;;;27.58;12.32;;;4.80;1.00;;;;;;5072823;28;20263;-64
2021/01/18 09:08:08;;;;;;;27.70;10.83;;;4.90;1.00;;;;;;5072945;28;20212;-63
2021/01/18 09:10:34;;;;;;;46.30;15.80;;;5.10;1.00;;;;;;5073027;28;20270;-63
2021/01/18 09:13:03;;;;;;;29.42;11.90;;;5.20;1.00;;;;;;5073511;28;20179;-63
2021/01/18 09:15:28;;;;;;;32.33;9.85;;;5.30;1.00;;;;;;5070882;28;20267;-65
2021/01/18 09:17:54;;;;;;;28.90;11.80;;;5.20;1.00;;;;;;5072942;28;20191;-63
2021/01/18 09:20:20;;;;;;;29.40;11.47;;;5.20;1.00;;;;;;5073232;28;20884;-63
2021/01/18 09:22:46;;;;;;;24.40;10.80;;;5.20;1.00;;;;;;5073735;28;20474;-63
2021/01/18 09:25:14;;;;;;;23.07;11.03;;;5.40;1.00;;;;;;5073040;28;20184;-62
2021/01/18 09:27:39;;;;;;;26.27;10.18;;;5.20;1.00;;;;;;5067931;28;20920;-63
2021/01/18 09:30:16;;;;;;;27.53;12.57;;;5.30;1.00;;;;;;5053258;28;20263;-62
2021/01/18 09:33:11;;;;;;;25.45;11.32;;;5.50;1.00;;;;;;5053353;28;20180;-63
2021/01/18 09:35:42;;;;;;;30.80;10.73;;;5.20;1.00;;;;;;5052483;28;20200;-62
2021/01/18 09:38:10;;;;;;;27.63;10.82;;;5.20;1.00;;;;;;5053417;28;20193;-64
2021/01/18 09:40:38;;;;;;;28.90;13.70;;;5.10;1.00;;;;;;5068127;28;20231;-65
2021/01/18 09:43:05;;;;;;;23.67;11.02;;;5.10;1.00;;;;;;5073156;28;20652;-65
2021/01/18 09:45:32;;;;;;;19.35;9.90;;;5.20;1.00;;;;;;5073147;28;20192;-64
2021/01/18 09:48:04;;;;;;;32.63;13.27;;;5.20;1.00;;;;;;5072899;28;20184;-64
2021/01/18 09:50:31;;;;;;;29.83;15.38;;;5.50;1.00;;;;;;5072888;28;20204;-63
2021/01/18 09:52:57;;;;;;;26.77;11.85;;;5.60;1.00;;;;;;5087752;28;20602;-62
2021/01/18 09:55:40;;;;;;;26.65;11.18;;;5.60;1.00;;;;;;5077421;28;20187;-63
2021/01/18 09:58:19;;;;;;;23.45;11.18;;;5.80;1.00;;;;;;5077704;28;20261;-62
2021/01/18 10:00:47;;;;;;;25.55;10.55;;;5.70;1.00;;;;;;5077379;28;20618;-63
2021/01/18 10:03:25;;;;;;;21.13;11.50;;;5.50;1.00;;;;;;5076917;28;20237;-63
2021/01/18 10:05:51;;;;;;;22.00;11.88;;;5.60;1.00;;;;;;5076095;28;20184;-65
2021/01/18 10:08:21;;;;;;;30.52;11.52;;;5.50;1.00;;;;;;5076926;28;20661;-65
2021/01/18 10:10:50;;;;;;;19.75;10.05;;;5.40;1.00;;;;;;5077120;28;20169;-60
2021/01/18 10:13:18;;;;;;;21.08;10.52;;;5.60;1.00;;;;;;5077213;28;20428;-62
2021/01/18 10:15:48;;;;;;;24.63;10.68;;;5.40;1.00;;;;;;5076207;28;20208;-62
2021/01/18 10:18:30;;;;;;;16.92;8.18;;;5.60;1.00;;;;;;5075851;28;20330;-62
2021/01/18 10:20:56;;;;;;;17.63;8.73;;;5.80;1.00;;;;;;5056623;28;20185;-61
2021/01/18 10:23:23;;;;;;;17.50;9.48;;;5.90;1.00;;;;;;5056426;28;20169;-61
2021/01/18 10:25:48;;;;;;;16.00;8.35;;;5.90;1.00;;;;;;5062627;28;20199;-61
2021/01/18 10:28:20;;;;;;;13.43;7.90;;;5.90;1.00;;;;;;5076691;28;20637;-61
2021/01/18 10:30:47;;;;;;;13.82;6.50;;;5.80;1.00;;;;;;5076777;28;20180;-64
2021/01/18 10:33:17;;;;;;;9.57;5.95;;;5.70;1.00;;;;;;5076232;28;20172;-62
2021/01/18 10:35:43;;;;;;;13.93;7.45;;;5.70;1.00;;;;;;5076364;28;20461;-62
2021/01/18 10:38:13;;;;;;;17.65;6.65;;;5.80;1.00;;;;;;5076329;28;20181;-62
2021/01/18 10:40:39;;;;;;;16.25;7.32;;;5.50;1.00;;;;;;5075989;28;20250;-63
2021/01/18 10:43:05;;;;;;;11.73;6.63;;;5.60;1.00;;;;;;5076597;28;20211;-62
2021/01/18 10:45:32;;;;;;;11.13;7.00;;;5.80;1.00;;;;;;5076525;28;20879;-60
2021/01/18 10:48:01;;;;;;;10.63;6.72;;;5.80;1.00;;;;;;5076167;28;20246;-61
2021/01/18 10:50:29;;;;;;;13.85;6.55;;;5.60;1.00;;;;;;5075306;28;20233;-60
2021/01/18 10:53:09;;;;;;;10.88;6.57;;;5.60;1.00;;;;;;5076071;28;20188;-59
2021/01/18 10:55:36;;;;;;;14.27;8.15;;;5.60;1.00;;;;;;5076377;28;20237;-59
2021/01/18 10:58:06;;;;;;;13.38;7.35;;;5.60;1.00;;;;;;5076630;28;20501;-61
2021/01/18 11:00:33;;;;;;;9.05;6.60;;;5.60;1.00;;;;;;5076900;28;20204;-60
2021/01/18 11:03:05;;;;;;;16.35;7.03;;;5.60;1.00;;;;;;5077028;28;20515;-62
2021/01/18 11:05:40;;;;;;;10.05;6.78;;;5.60;1.00;;;;;;5092338;28;20207;-62
2021/01/18 11:08:07;;;;;;;10.52;6.82;;;5.60;1.00;;;;;;5077035;28;20263;-62
2021/01/18 11:10:44;;;;;;;10.80;6.38;;;5.60;1.00;;;;;;5075543;28;20502;-63
2021/01/18 11:13:17;;;;;;;16.23;7.40;;;5.80;1.00;;;;;;5076272;28;20557;-66
2021/01/18 11:15:49;;;;;;;12.98;7.72;;;5.80;1.00;;;;;;5075780;28;20177;-60
2021/01/18 11:18:19;;;;;;;11.73;7.47;;;5.80;1.00;;;;;;5075336;28;20173;-60
2021/01/18 11:20:51;;;;;;;14.77;8.20;;;5.90;1.00;;;;;;5075761;28;20181;-60
2021/01/18 11:23:17;;;;;;;15.25;8.30;;;5.80;1.00;;;;;;5075999;28;20617;-59
2021/01/18 11:25:42;;;;;;;14.60;8.07;;;5.70;1.00;;;;;;5075481;28;20274;-60
2021/01/18 11:28:16;;;;;;;16.03;8.83;;;5.70;1.00;;;;;;5076046;28;20230;-60
2021/01/18 11:30:43;;;;;;;22.48;8.65;;;5.80;1.00;;;;;;5075847;28;20205;-61
2021/01/18 11:33:09;;;;;;;14.68;8.40;;;5.90;1.00;;;;;;5075250;28;20267;-61
2021/01/18 11:35:36;;;;;;;13.20;8.93;;;5.70;1.00;;;;;;5075269;28;20864;-62
2021/01/18 11:38:02;;;;;;;12.82;9.43;;;5.60;1.00;;;;;;5073945;28;20769;-58
2021/01/18 11:40:27;;;;;;;17.33;10.30;;;5.60;1.00;;;;;;5072650;28;20283;-61
2021/01/18 11:42:57;;;;;;;12.50;8.40;;;5.70;1.00;;;;;;5064416;28;20677;-61
2021/01/18 11:45:23;;;;;;;21.75;11.05;;;5.70;1.00;;;;;;5064177;28;20301;-61
2021/01/18 11:47:50;;;;;;;22.50;10.65;;;5.80;1.00;;;;;;5073348;28;20215;-64
2021/01/18 11:50:16;;;;;;;20.63;10.48;;;5.90;1.00;;;;;;5072567;28;20208;-62
2021/01/18 11:52:48;;;;;;;23.83;12.77;;;6.10;1.00;;;;;;5074579;28;20234;-66
2021/01/18 11:55:15;;;;;;;20.15;10.48;;;6.20;1.00;;;;;;5073404;28;20633;-65
2021/01/18 11:57:49;;;;;;;16.83;9.00;;;6.00;1.00;;;;;;5073390;28;20257;-63
2021/01/18 12:00:21;;;;;;;22.02;11.27;;;5.80;1.00;;;;;;5073498;28;20211;-63
2021/01/18 12:02:46;;;;;;;21.83;11.32;;;5.70;1.00;;;;;;5074586;28;20208;-64
2021/01/18 12:05:12;;;;;;;19.00;12.33;;;5.70;1.00;;;;;;5075188;28;20262;-62
2021/01/18 12:07:38;;;;;;;26.65;11.63;;;5.70;1.00;;;;;;5073537;28;20188;-64
2021/01/18 12:10:06;;;;;;;21.87;11.37;;;5.90;1.00;;;;;;5074851;28;20208;-64
2021/01/18 12:12:35;;;;;;;21.95;11.18;;;5.80;1.00;;;;;;5075123;28;20180;-65
2021/01/18 12:15:01;;;;;;;22.38;11.90;;;5.80;1.00;;;;;;5076388;28;20638;-61
2021/01/18 12:17:27;;;;;;;20.60;12.63;;;5.60;1.00;;;;;;5064740;28;20184;-62
2021/01/18 12:19:52;;;;;;;29.57;13.80;;;5.70;1.00;;;;;;5063271;28;20458;-61
2021/01/18 12:22:18;;;;;;;22.00;11.90;;;5.80;1.00;;;;;;5073659;28;20197;-61
2021/01/18 12:24:44;;;;;;;21.23;12.23;;;5.70;1.00;;;;;;5071181;28;20238;-63
2021/01/18 12:27:11;;;;;;;21.58;11.80;;;5.70;1.00;;;;;;5066856;28;20223;-63
2021/01/18 12:29:36;;;;;;;30.75;14.32;;;5.70;1.00;;;;;;5074559;28;20258;-65
2021/01/18 12:32:02;;;;;;;26.07;12.43;;;5.80;1.00;;;;;;5073638;28;20181;-65
2021/01/18 12:34:28;;;;;;;20.23;12.88;;;5.80;1.00;;;;;;5066718;28;20189;-64
2021/01/18 12:36:57;;;;;;;18.00;11.70;;;5.60;1.00;;;;;;5067107;28;20188;-64
2021/01/18 12:39:23;;;;;;;24.42;13.60;;;5.60;1.00;;;;;;5074293;28;20223;-64
2021/01/18 12:41:49;;;;;;;20.67;12.53;;;5.60;1.00;;;;;;5074776;28;20216;-65
2021/01/18 12:44:15;;;;;;;21.80;12.43;;;5.70;1.00;;;;;;5073317;28;20449;-63
2021/01/18 12:46:41;;;;;;;23.25;12.27;;;5.60;1.00;;;;;;5074742;28;20189;-63
2021/01/18 12:49:07;;;;;;;14.63;7.27;;;5.60;1.10;;;;;;5073803;28;20279;-65
2021/01/18 12:51:33;;;;;;;19.40;11.77;;;5.50;14.10;;;;;;5075291;28;20192;-67
2021/01/18 12:53:58;;;;;;;23.00;13.57;;;5.60;26.00;;;;;;5076190;28;20502;-66
2021/01/18 12:56:31;;;;;;;16.70;10.90;;;5.70;34.60;;;;;;5074023;28;20477;-63
2021/01/18 12:58:58;;;;;;;18.58;11.13;;;5.70;25.30;;;;;;5074042;28;20173;-65
2021/01/18 13:01:31;;;;;;;21.98;11.77;;;5.70;19.90;;;;;;5073826;28;20531;-61
2021/01/18 13:03:57;;;;;;;24.83;14.00;;;5.70;21.80;;;;;;5072868;28;20214;-60
2021/01/18 13:06:32;;;;;;;25.40;14.48;;;5.70;18.60;;;;;;5072839;28;20196;-65